sensor_id;sensor_type;location;lat;lon;timestamp;P1;durP1;ratioP1;P2;durP2;ratioP2
49252;SDS011;35103;47.952;-1.502;2022-10-16T00:00:18;713.67;;;659.75;;
49252;SDS011;35103;47.952;-1.502;2022-10-16T00:02:43;703.42;;;647.25;;
49252;SDS011;35103;47.952;-1.502;2022-10-16T00:05:09;778.00;;;715.58;;
49252;SDS011;35103;47.952;-1.502;2022-10-16T00:07:35;709.10;;;654.40;;
49252;SDS011;35103;47.952;-1.502;2022-10-16T00:10:00;675.25;;;623.72;;
49252;SDS011;35103;47.952;-1.502;2022-10-16T00:12:26;718.58;;;663.42;;
49252;SDS011;35103;47.952;-1.502;2022-10-16T00:14:51;703.85;;;647.45;;
49252;SDS011;35103;47.952;-1.502;2022-10-16T00:17:17;713.60;;;654.95;;
49252;SDS011;35103;47.952;-1.502;2022-10-16T00:19:42;834.03;;;763.92;;
49252;SDS011;35103;47.952;-1.502;2022-10-16T00:22:08;817.03;;;749.75;;
49252;SDS011;35103;47.952;-1.502;2022-10-16T00:24:33;766.17;;;706.58;;
49252;SDS011;35103;47.952;-1.502;2022-10-16T00:26:59;698.35;;;646.90;;
49252;SDS011;35103;47.952;-1.502;2022-10-16T00:29:24;861.40;;;787.70;;
49252;SDS011;35103;47.952;-1.502;2022-10-16T00:31:50;788.38;;;722.05;;
49252;SDS011;35103;47.952;-1.502;2022-10-16T00:34:16;766.00;;;704.78;;
49252;SDS011;35103;47.952;-1.502;2022-10-16T00:36:41;641.70;;;594.95;;
49252;SDS011;35103;47.952;-1.502;2022-10-16T00:39:07;728.78;;;671.08;;
49252;SDS011;35103;47.952;-1.502;2022-10-16T00:41:32;824.38;;;750.72;;
49252;SDS011;35103;47.952;-1.502;2022-10-16T00:43:59;794.25;;;728.35;;
49252;SDS011;35103;47.952;-1.502;2022-10-16T00:49:05;647.53;;;597.70;;
49252;SDS011;35103;47.952;-1.502;2022-10-16T00:51:37;651.20;;;601.40;;
49252;SDS011;35103;47.952;-1.502;2022-10-16T00:54:09;718.88;;;660.65;;
49252;SDS011;35103;47.952;-1.502;2022-10-16T00:56:38;672.72;;;622.70;;
49252;SDS011;35103;47.952;-1.502;2022-10-16T00:59:04;684.20;;;633.75;;
49252;SDS011;35103;47.952;-1.502;2022-10-16T01:01:36;650.97;;;603.88;;
49252;SDS011;35103;47.952;-1.502;2022-10-16T01:04:01;847.25;;;768.83;;
49252;SDS011;35103;47.952;-1.502;2022-10-16T01:22:54;573.45;;;531.72;;
49252;SDS011;35103;47.952;-1.502;2022-10-16T01:25:49;682.53;;;630.33;;
49252;SDS011;35103;47.952;-1.502;2022-10-16T01:28:32;654.63;;;605.38;;
49252;SDS011;35103;47.952;-1.502;2022-10-16T01:31:03;700.78;;;647.40;;
49252;SDS011;35103;47.952;-1.502;2022-10-16T01:33:40;661.60;;;613.22;;
49252;SDS011;35103;47.952;-1.502;2022-10-16T01:36:17;612.72;;;568.22;;
49252;SDS011;35103;47.952;-1.502;2022-10-16T01:38:47;645.70;;;597.78;;
49252;SDS011;35103;47.952;-1.502;2022-10-16T01:41:18;665.60;;;615.15;;
49252;SDS011;35103;47.952;-1.502;2022-10-16T01:43:54;624.03;;;578.13;;
49252;SDS011;35103;47.952;-1.502;2022-10-16T01:46:27;635.03;;;588.78;;
49252;SDS011;35103;47.952;-1.502;2022-10-16T01:48:55;641.08;;;593.88;;
49252;SDS011;35103;47.952;-1.502;2022-10-16T01:51:22;741.83;;;683.20;;
49252;SDS011;35103;47.952;-1.502;2022-10-16T01:53:51;667.33;;;617.72;;
49252;SDS011;35103;47.952;-1.502;2022-10-16T01:56:19;614.85;;;569.95;;
49252;SDS011;35103;47.952;-1.502;2022-10-16T01:58:48;702.17;;;648.40;;
49252;SDS011;35103;47.952;-1.502;2022-10-16T02:01:21;726.97;;;672.65;;
49252;SDS011;35103;47.952;-1.502;2022-10-16T02:03:50;739.38;;;682.63;;
49252;SDS011;35103;47.952;-1.502;2022-10-16T02:06:18;746.70;;;690.45;;
49252;SDS011;35103;47.952;-1.502;2022-10-16T02:08:44;704.40;;;653.45;;
49252;SDS011;35103;47.952;-1.502;2022-10-16T02:11:09;726.67;;;670.90;;
49252;SDS011;35103;47.952;-1.502;2022-10-16T02:16:08;683.63;;;633.13;;
49252;SDS011;35103;47.952;-1.502;2022-10-16T02:18:35;661.97;;;613.92;;
49252;SDS011;35103;47.952;-1.502;2022-10-16T02:29:11;577.30;;;535.92;;
49252;SDS011;35103;47.952;-1.502;2022-10-16T02:31:41;739.28;;;680.67;;
49252;SDS011;35103;47.952;-1.502;2022-10-16T02:34:10;712.45;;;656.95;;
49252;SDS011;35103;47.952;-1.502;2022-10-16T02:36:37;691.17;;;637.97;;
49252;SDS011;35103;47.952;-1.502;2022-10-16T02:39:04;741.80;;;683.97;;
49252;SDS011;35103;47.952;-1.502;2022-10-16T02:41:30;648.80;;;600.78;;
49252;SDS011;35103;47.952;-1.502;2022-10-16T02:43:56;655.45;;;606.63;;
49252;SDS011;35103;47.952;-1.502;2022-10-16T02:46:22;625.60;;;579.70;;
49252;SDS011;35103;47.952;-1.502;2022-10-16T02:48:47;718.90;;;664.25;;
49252;SDS011;35103;47.952;-1.502;2022-10-16T02:51:13;678.35;;;628.20;;
49252;SDS011;35103;47.952;-1.502;2022-10-16T02:53:38;675.13;;;623.28;;
49252;SDS011;35103;47.952;-1.502;2022-10-16T02:56:04;641.17;;;594.70;;
49252;SDS011;35103;47.952;-1.502;2022-10-16T02:58:30;629.55;;;582.25;;
49252;SDS011;35103;47.952;-1.502;2022-10-16T03:00:55;601.97;;;557.13;;
49252;SDS011;35103;47.952;-1.502;2022-10-16T03:03:21;695.58;;;642.35;;
49252;SDS011;35103;47.952;-1.502;2022-10-16T03:05:46;698.97;;;644.88;;
49252;SDS011;35103;47.952;-1.502;2022-10-16T03:08:12;725.28;;;667.33;;
49252;SDS011;35103;47.952;-1.502;2022-10-16T03:10:38;760.55;;;697.50;;
49252;SDS011;35103;47.952;-1.502;2022-10-16T03:13:03;684.78;;;632.25;;
49252;SDS011;35103;47.952;-1.502;2022-10-16T03:15:29;917.53;;;828.85;;
49252;SDS011;35103;47.952;-1.502;2022-10-16T03:17:57;694.97;;;642.88;;
49252;SDS011;35103;47.952;-1.502;2022-10-16T03:20:23;657.80;;;606.25;;
49252;SDS011;35103;47.952;-1.502;2022-10-16T03:22:49;735.13;;;677.35;;
49252;SDS011;35103;47.952;-1.502;2022-10-16T03:25:14;622.03;;;577.33;;
49252;SDS011;35103;47.952;-1.502;2022-10-16T03:27:40;694.33;;;641.95;;
49252;SDS011;35103;47.952;-1.502;2022-10-16T03:30:06;674.60;;;623.85;;
49252;SDS011;35103;47.952;-1.502;2022-10-16T03:32:32;634.05;;;587.40;;
49252;SDS011;35103;47.952;-1.502;2022-10-16T03:34:57;720.40;;;665.20;;
49252;SDS011;35103;47.952;-1.502;2022-10-16T03:37:23;667.33;;;615.50;;
49252;SDS011;35103;47.952;-1.502;2022-10-16T03:39:49;799.83;;;733.90;;
49252;SDS011;35103;47.952;-1.502;2022-10-16T03:42:14;713.38;;;658.83;;
49252;SDS011;35103;47.952;-1.502;2022-10-16T03:44:40;760.70;;;700.25;;
49252;SDS011;35103;47.952;-1.502;2022-10-16T03:47:05;704.45;;;651.17;;
49252;SDS011;35103;47.952;-1.502;2022-10-16T03:49:31;640.85;;;593.83;;
49252;SDS011;35103;47.952;-1.502;2022-10-16T03:51:56;709.70;;;652.40;;
49252;SDS011;35103;47.952;-1.502;2022-10-16T03:54:22;658.22;;;608.95;;
49252;SDS011;35103;47.952;-1.502;2022-10-16T03:56:47;679.90;;;628.25;;
49252;SDS011;35103;47.952;-1.502;2022-10-16T03:59:13;622.92;;;577.58;;
49252;SDS011;35103;47.952;-1.502;2022-10-16T04:01:39;649.88;;;602.67;;
49252;SDS011;35103;47.952;-1.502;2022-10-16T04:04:04;629.22;;;583.85;;
49252;SDS011;35103;47.952;-1.502;2022-10-16T04:06:30;634.67;;;589.30;;
49252;SDS011;35103;47.952;-1.502;2022-10-16T04:08:55;632.47;;;585.72;;
49252;SDS011;35103;47.952;-1.502;2022-10-16T04:11:21;729.25;;;672.38;;
49252;SDS011;35103;47.952;-1.502;2022-10-16T04:13:47;682.65;;;631.88;;
49252;SDS011;35103;47.952;-1.502;2022-10-16T04:16:13;693.08;;;639.55;;
49252;SDS011;35103;47.952;-1.502;2022-10-16T04:18:38;673.22;;;622.70;;
49252;SDS011;35103;47.952;-1.502;2022-10-16T04:21:04;617.75;;;572.90;;
49252;SDS011;35103;47.952;-1.502;2022-10-16T04:23:31;664.63;;;615.17;;
49252;SDS011;35103;47.952;-1.502;2022-10-16T04:25:57;654.47;;;606.10;;
49252;SDS011;35103;47.952;-1.502;2022-10-16T04:28:22;651.00;;;602.15;;
49252;SDS011;35103;47.952;-1.502;2022-10-16T04:30:48;655.55;;;606.75;;
49252;SDS011;35103;47.952;-1.502;2022-10-16T04:33:13;629.97;;;582.83;;
49252;SDS011;35103;47.952;-1.502;2022-10-16T04:35:39;661.30;;;613.55;;
49252;SDS011;35103;47.952;-1.502;2022-10-16T04:38:04;690.33;;;639.05;;
49252;SDS011;35103;47.952;-1.502;2022-10-16T04:40:30;701.45;;;647.80;;
49252;SDS011;35103;47.952;-1.502;2022-10-16T04:42:55;616.55;;;571.83;;
49252;SDS011;35103;47.952;-1.502;2022-10-16T04:45:21;668.25;;;617.90;;
49252;SDS011;35103;47.952;-1.502;2022-10-16T04:47:47;680.67;;;628.08;;
49252;SDS011;35103;47.952;-1.502;2022-10-16T04:50:12;635.35;;;588.25;;
49252;SDS011;35103;47.952;-1.502;2022-10-16T04:52:38;658.90;;;608.78;;
49252;SDS011;35103;47.952;-1.502;2022-10-16T04:55:03;657.92;;;605.63;;
49252;SDS011;35103;47.952;-1.502;2022-10-16T04:57:29;672.60;;;621.20;;
49252;SDS011;35103;47.952;-1.502;2022-10-16T04:59:55;697.25;;;641.17;;
49252;SDS011;35103;47.952;-1.502;2022-10-16T05:02:20;658.33;;;609.88;;
49252;SDS011;35103;47.952;-1.502;2022-10-16T05:04:46;629.58;;;583.63;;
49252;SDS011;35103;47.952;-1.502;2022-10-16T05:07:12;654.95;;;605.55;;
49252;SDS011;35103;47.952;-1.502;2022-10-16T05:09:37;652.95;;;604.60;;
49252;SDS011;35103;47.952;-1.502;2022-10-16T05:12:03;690.95;;;636.10;;
49252;SDS011;35103;47.952;-1.502;2022-10-16T05:14:29;723.30;;;666.88;;
49252;SDS011;35103;47.952;-1.502;2022-10-16T05:16:54;687.72;;;634.55;;
49252;SDS011;35103;47.952;-1.502;2022-10-16T05:19:20;624.22;;;577.47;;
49252;SDS011;35103;47.952;-1.502;2022-10-16T05:21:46;657.25;;;608.40;;
49252;SDS011;35103;47.952;-1.502;2022-10-16T05:24:11;671.63;;;620.60;;
49252;SDS011;35103;47.952;-1.502;2022-10-16T05:26:37;612.67;;;567.25;;
49252;SDS011;35103;47.952;-1.502;2022-10-16T05:29:02;611.70;;;565.85;;
49252;SDS011;35103;47.952;-1.502;2022-10-16T05:31:28;651.22;;;602.53;;
49252;SDS011;35103;47.952;-1.502;2022-10-16T05:34:00;608.60;;;563.95;;
49252;SDS011;35103;47.952;-1.502;2022-10-16T05:36:26;666.85;;;615.17;;
49252;SDS011;35103;47.952;-1.502;2022-10-16T05:38:52;622.10;;;576.03;;
49252;SDS011;35103;47.952;-1.502;2022-10-16T05:41:18;662.53;;;611.22;;
49252;SDS011;35103;47.952;-1.502;2022-10-16T05:43:44;600.22;;;556.28;;
49252;SDS011;35103;47.952;-1.502;2022-10-16T05:46:09;649.55;;;600.13;;
49252;SDS011;35103;47.952;-1.502;2022-10-16T05:48:35;665.42;;;614.75;;
49252;SDS011;35103;47.952;-1.502;2022-10-16T05:51:04;617.22;;;570.47;;
49252;SDS011;35103;47.952;-1.502;2022-10-16T05:53:32;703.03;;;647.08;;
49252;SDS011;35103;47.952;-1.502;2022-10-16T05:55:59;683.95;;;630.83;;
49252;SDS011;35103;47.952;-1.502;2022-10-16T05:58:27;609.83;;;565.28;;
49252;SDS011;35103;47.952;-1.502;2022-10-16T06:03:24;592.67;;;549.88;;
49252;SDS011;35103;47.952;-1.502;2022-10-16T06:05:50;710.50;;;653.85;;
49252;SDS011;35103;47.952;-1.502;2022-10-16T06:08:16;604.63;;;559.40;;
49252;SDS011;35103;47.952;-1.502;2022-10-16T06:10:42;616.97;;;570.78;;
49252;SDS011;35103;47.952;-1.502;2022-10-16T06:13:09;654.40;;;604.75;;
49252;SDS011;35103;47.952;-1.502;2022-10-16T06:15:35;693.65;;;638.92;;
49252;SDS011;35103;47.952;-1.502;2022-10-16T06:18:00;633.35;;;585.55;;
49252;SDS011;35103;47.952;-1.502;2022-10-16T06:20:26;618.20;;;571.30;;
49252;SDS011;35103;47.952;-1.502;2022-10-16T06:22:51;584.22;;;541.22;;
49252;SDS011;35103;47.952;-1.502;2022-10-16T06:25:17;561.65;;;520.65;;
49252;SDS011;35103;47.952;-1.502;2022-10-16T06:27:43;579.08;;;536.47;;
49252;SDS011;35103;47.952;-1.502;2022-10-16T06:30:08;695.22;;;638.85;;
49252;SDS011;35103;47.952;-1.502;2022-10-16T06:32:34;615.65;;;568.97;;
49252;SDS011;35103;47.952;-1.502;2022-10-16T06:35:00;569.88;;;527.70;;
49252;SDS011;35103;47.952;-1.502;2022-10-16T06:37:26;625.58;;;577.58;;
49252;SDS011;35103;47.952;-1.502;2022-10-16T06:39:52;670.20;;;619.00;;
49252;SDS011;35103;47.952;-1.502;2022-10-16T06:42:17;710.67;;;655.40;;
49252;SDS011;35103;47.952;-1.502;2022-10-16T06:44:43;617.88;;;570.25;;
49252;SDS011;35103;47.952;-1.502;2022-10-16T06:47:09;672.28;;;620.15;;
49252;SDS011;35103;47.952;-1.502;2022-10-16T06:49:35;591.95;;;548.35;;
49252;SDS011;35103;47.952;-1.502;2022-10-16T06:52:01;634.53;;;584.53;;
49252;SDS011;35103;47.952;-1.502;2022-10-16T06:54:27;641.45;;;592.25;;
49252;SDS011;35103;47.952;-1.502;2022-10-16T06:56:53;591.83;;;548.85;;
49252;SDS011;35103;47.952;-1.502;2022-10-16T06:59:19;621.72;;;575.47;;
49252;SDS011;35103;47.952;-1.502;2022-10-16T07:01:44;680.50;;;627.33;;
49252;SDS011;35103;47.952;-1.502;2022-10-16T07:04:10;600.95;;;555.80;;
49252;SDS011;35103;47.952;-1.502;2022-10-16T07:06:36;660.38;;;608.20;;
49252;SDS011;35103;47.952;-1.502;2022-10-16T07:09:03;631.70;;;585.50;;
49252;SDS011;35103;47.952;-1.502;2022-10-16T07:11:30;617.60;;;571.38;;
49252;SDS011;35103;47.952;-1.502;2022-10-16T07:13:56;701.15;;;644.95;;
49252;SDS011;35103;47.952;-1.502;2022-10-16T07:16:25;588.05;;;544.22;;
49252;SDS011;35103;47.952;-1.502;2022-10-16T07:18:56;633.15;;;585.25;;
49252;SDS011;35103;47.952;-1.502;2022-10-16T07:21:22;587.45;;;544.53;;
49252;SDS011;35103;47.952;-1.502;2022-10-16T07:23:53;611.10;;;566.88;;
49252;SDS011;35103;47.952;-1.502;2022-10-16T07:26:21;635.65;;;588.20;;
49252;SDS011;35103;47.952;-1.502;2022-10-16T07:28:47;568.08;;;526.83;;
49252;SDS011;35103;47.952;-1.502;2022-10-16T07:31:13;639.92;;;592.20;;
49252;SDS011;35103;47.952;-1.502;2022-10-16T07:33:40;592.20;;;550.20;;
49252;SDS011;35103;47.952;-1.502;2022-10-16T07:36:07;616.70;;;570.40;;
49252;SDS011;35103;47.952;-1.502;2022-10-16T07:38:34;694.03;;;641.47;;
49252;SDS011;35103;47.952;-1.502;2022-10-16T07:41:00;639.35;;;590.00;;
49252;SDS011;35103;47.952;-1.502;2022-10-16T07:43:27;579.28;;;537.15;;
49252;SDS011;35103;47.952;-1.502;2022-10-16T07:45:54;620.28;;;575.28;;
49252;SDS011;35103;47.952;-1.502;2022-10-16T07:48:20;637.97;;;589.83;;
49252;SDS011;35103;47.952;-1.502;2022-10-16T07:50:46;565.85;;;524.08;;
49252;SDS011;35103;47.952;-1.502;2022-10-16T07:53:12;613.88;;;567.40;;
49252;SDS011;35103;47.952;-1.502;2022-10-16T07:55:38;622.42;;;577.33;;
49252;SDS011;35103;47.952;-1.502;2022-10-16T07:58:04;584.55;;;541.97;;
49252;SDS011;35103;47.952;-1.502;2022-10-16T08:00:30;626.97;;;578.88;;
49252;SDS011;35103;47.952;-1.502;2022-10-16T08:02:57;646.58;;;598.85;;
49252;SDS011;35103;47.952;-1.502;2022-10-16T08:05:23;675.58;;;622.90;;
49252;SDS011;35103;47.952;-1.502;2022-10-16T08:07:49;679.28;;;626.72;;
49252;SDS011;35103;47.952;-1.502;2022-10-16T08:10:16;625.63;;;577.00;;
49252;SDS011;35103;47.952;-1.502;2022-10-16T08:12:44;598.90;;;553.30;;
49252;SDS011;35103;47.952;-1.502;2022-10-16T08:15:09;600.65;;;557.20;;
49252;SDS011;35103;47.952;-1.502;2022-10-16T08:17:35;632.22;;;583.78;;
49252;SDS011;35103;47.952;-1.502;2022-10-16T08:20:01;741.10;;;682.47;;
49252;SDS011;35103;47.952;-1.502;2022-10-16T08:22:27;574.45;;;533.38;;
49252;SDS011;35103;47.952;-1.502;2022-10-16T08:24:53;767.25;;;705.38;;
49252;SDS011;35103;47.952;-1.502;2022-10-16T08:27:19;645.90;;;597.28;;
49252;SDS011;35103;47.952;-1.502;2022-10-16T08:29:44;690.80;;;636.70;;
49252;SDS011;35103;47.952;-1.502;2022-10-16T08:32:10;723.78;;;663.30;;
49252;SDS011;35103;47.952;-1.502;2022-10-16T08:34:36;671.78;;;619.97;;
49252;SDS011;35103;47.952;-1.502;2022-10-16T08:37:01;641.58;;;589.30;;
49252;SDS011;35103;47.952;-1.502;2022-10-16T08:39:27;684.38;;;630.25;;
49252;SDS011;35103;47.952;-1.502;2022-10-16T08:44:34;741.53;;;682.22;;
49252;SDS011;35103;47.952;-1.502;2022-10-16T08:49:36;694.20;;;637.85;;
49252;SDS011;35103;47.952;-1.502;2022-10-16T08:52:08;698.00;;;641.05;;
49252;SDS011;35103;47.952;-1.502;2022-10-16T08:54:37;678.22;;;623.15;;
49252;SDS011;35103;47.952;-1.502;2022-10-16T08:57:12;683.58;;;629.75;;
49252;SDS011;35103;47.952;-1.502;2022-10-16T08:59:41;706.90;;;650.08;;
49252;SDS011;35103;47.952;-1.502;2022-10-16T09:02:30;638.83;;;589.85;;
49252;SDS011;35103;47.952;-1.502;2022-10-16T09:05:17;670.92;;;619.20;;
49252;SDS011;35103;47.952;-1.502;2022-10-16T09:10:47;583.00;;;539.10;;
49252;SDS011;35103;47.952;-1.502;2022-10-16T09:13:43;592.90;;;546.97;;
49252;SDS011;35103;47.952;-1.502;2022-10-16T09:21:37;588.38;;;543.47;;
49252;SDS011;35103;47.952;-1.502;2022-10-16T09:24:13;576.50;;;533.25;;
49252;SDS011;35103;47.952;-1.502;2022-10-16T09:26:40;657.97;;;605.47;;
49252;SDS011;35103;47.952;-1.502;2022-10-16T09:29:08;636.47;;;585.92;;
49252;SDS011;35103;47.952;-1.502;2022-10-16T09:31:41;610.08;;;562.20;;
49252;SDS011;35103;47.952;-1.502;2022-10-16T09:34:13;569.05;;;526.53;;
49252;SDS011;35103;47.952;-1.502;2022-10-16T09:36:43;654.80;;;605.63;;
49252;SDS011;35103;47.952;-1.502;2022-10-16T09:39:11;748.60;;;682.75;;
49252;SDS011;35103;47.952;-1.502;2022-10-16T09:41:37;645.13;;;595.10;;
49252;SDS011;35103;47.952;-1.502;2022-10-16T09:44:06;784.08;;;716.25;;
49252;SDS011;35103;47.952;-1.502;2022-10-16T09:47:00;645.33;;;595.05;;
49252;SDS011;35103;47.952;-1.502;2022-10-16T09:49:27;674.13;;;621.10;;
49252;SDS011;35103;47.952;-1.502;2022-10-16T09:52:05;644.65;;;593.30;;
49252;SDS011;35103;47.952;-1.502;2022-10-16T09:54:36;573.35;;;531.25;;
49252;SDS011;35103;47.952;-1.502;2022-10-16T09:57:10;595.78;;;550.35;;
49252;SDS011;35103;47.952;-1.502;2022-10-16T09:59:45;588.83;;;544.22;;
49252;SDS011;35103;47.952;-1.502;2022-10-16T10:02:16;527.90;;;489.13;;
49252;SDS011;35103;47.952;-1.502;2022-10-16T10:04:48;531.03;;;491.98;;
49252;SDS011;35103;47.952;-1.502;2022-10-16T10:07:35;549.75;;;509.33;;
49252;SDS011;35103;47.952;-1.502;2022-10-16T10:10:18;684.45;;;630.88;;
49252;SDS011;35103;47.952;-1.502;2022-10-16T10:12:46;697.67;;;640.38;;
49252;SDS011;35103;47.952;-1.502;2022-10-16T10:15:12;525.58;;;487.60;;
49252;SDS011;35103;47.952;-1.502;2022-10-16T10:17:49;668.33;;;617.65;;
49252;SDS011;35103;47.952;-1.502;2022-10-16T10:20:32;561.35;;;518.63;;
49252;SDS011;35103;47.952;-1.502;2022-10-16T10:23:01;630.35;;;579.03;;
49252;SDS011;35103;47.952;-1.502;2022-10-16T10:28:50;835.25;;;760.08;;
49252;SDS011;35103;47.952;-1.502;2022-10-16T10:31:29;639.95;;;591.38;;
49252;SDS011;35103;47.952;-1.502;2022-10-16T10:36:43;730.47;;;670.50;;
49252;SDS011;35103;47.952;-1.502;2022-10-16T10:39:30;722.83;;;658.35;;
49252;SDS011;35103;47.952;-1.502;2022-10-16T10:50:31;693.63;;;636.55;;
49252;SDS011;35103;47.952;-1.502;2022-10-16T10:55:54;737.28;;;674.28;;
49252;SDS011;35103;47.952;-1.502;2022-10-16T10:58:34;579.22;;;535.15;;
49252;SDS011;35103;47.952;-1.502;2022-10-16T11:01:02;498.70;;;463.60;;
49252;SDS011;35103;47.952;-1.502;2022-10-16T11:07:09;564.45;;;522.80;;
49252;SDS011;35103;47.952;-1.502;2022-10-16T11:09:52;641.95;;;590.88;;
49252;SDS011;35103;47.952;-1.502;2022-10-16T11:12:41;623.45;;;576.05;;
49252;SDS011;35103;47.952;-1.502;2022-10-16T11:15:28;527.63;;;489.33;;
49252;SDS011;35103;47.952;-1.502;2022-10-16T11:17:59;571.03;;;527.42;;
49252;SDS011;35103;47.952;-1.502;2022-10-16T11:20:43;516.53;;;478.60;;
49252;SDS011;35103;47.952;-1.502;2022-10-16T11:26:20;454.38;;;423.23;;
49252;SDS011;35103;47.952;-1.502;2022-10-16T11:28:50;657.67;;;607.78;;
49252;SDS011;35103;47.952;-1.502;2022-10-16T11:33:59;534.03;;;495.80;;
49252;SDS011;35103;47.952;-1.502;2022-10-16T11:36:40;670.45;;;618.95;;
49252;SDS011;35103;47.952;-1.502;2022-10-16T11:41:44;537.95;;;498.70;;
49252;SDS011;35103;47.952;-1.502;2022-10-16T11:49:30;531.58;;;493.00;;
49252;SDS011;35103;47.952;-1.502;2022-10-16T11:52:11;460.15;;;428.55;;
49252;SDS011;35103;47.952;-1.502;2022-10-16T11:57:12;481.83;;;448.02;;
49252;SDS011;35103;47.952;-1.502;2022-10-16T11:59:43;504.80;;;469.17;;
49252;SDS011;35103;47.952;-1.502;2022-10-16T12:05:19;625.58;;;576.30;;
49252;SDS011;35103;47.952;-1.502;2022-10-16T12:08:05;594.83;;;549.45;;
49252;SDS011;35103;47.952;-1.502;2022-10-16T12:10:35;502.73;;;466.27;;
49252;SDS011;35103;47.952;-1.502;2022-10-16T12:13:00;511.38;;;474.38;;
49252;SDS011;35103;47.952;-1.502;2022-10-16T12:15:27;527.33;;;488.30;;
49252;SDS011;35103;47.952;-1.502;2022-10-16T12:17:54;569.15;;;526.13;;
49252;SDS011;35103;47.952;-1.502;2022-10-16T12:20:25;632.85;;;581.75;;
49252;SDS011;35103;47.952;-1.502;2022-10-16T12:22:58;712.40;;;651.78;;
49252;SDS011;35103;47.952;-1.502;2022-10-16T12:30:54;615.88;;;565.53;;
49252;SDS011;35103;47.952;-1.502;2022-10-16T12:33:23;558.05;;;514.28;;
49252;SDS011;35103;47.952;-1.502;2022-10-16T12:35:53;579.53;;;537.13;;
49252;SDS011;35103;47.952;-1.502;2022-10-16T12:38:20;611.13;;;563.45;;
49252;SDS011;35103;47.952;-1.502;2022-10-16T12:43:26;644.25;;;589.00;;
49252;SDS011;35103;47.952;-1.502;2022-10-16T12:46:20;583.75;;;538.38;;
49252;SDS011;35103;47.952;-1.502;2022-10-16T12:48:48;524.05;;;486.00;;
49252;SDS011;35103;47.952;-1.502;2022-10-16T12:54:02;697.40;;;638.03;;
49252;SDS011;35103;47.952;-1.502;2022-10-16T13:13:32;672.28;;;619.10;;
49252;SDS011;35103;47.952;-1.502;2022-10-16T13:19:06;680.35;;;625.45;;
49252;SDS011;35103;47.952;-1.502;2022-10-16T13:21:58;736.70;;;674.70;;
49252;SDS011;35103;47.952;-1.502;2022-10-16T13:24:49;721.40;;;661.33;;
49252;SDS011;35103;47.952;-1.502;2022-10-16T13:30:20;645.78;;;593.00;;
49252;SDS011;35103;47.952;-1.502;2022-10-16T13:32:54;666.50;;;614.83;;
49252;SDS011;35103;47.952;-1.502;2022-10-16T13:35:28;698.33;;;641.47;;
49252;SDS011;35103;47.952;-1.502;2022-10-16T13:38:06;669.55;;;614.67;;
49252;SDS011;35103;47.952;-1.502;2022-10-16T13:40:36;756.53;;;690.42;;
49252;SDS011;35103;47.952;-1.502;2022-10-16T13:43:12;666.53;;;612.65;;
49252;SDS011;35103;47.952;-1.502;2022-10-16T13:45:38;671.35;;;617.35;;
49252;SDS011;35103;47.952;-1.502;2022-10-16T13:48:04;753.58;;;686.90;;
49252;SDS011;35103;47.952;-1.502;2022-10-16T13:50:34;734.90;;;674.00;;
49252;SDS011;35103;47.952;-1.502;2022-10-16T13:53:06;662.55;;;608.40;;
49252;SDS011;35103;47.952;-1.502;2022-10-16T13:55:37;728.13;;;666.38;;
49252;SDS011;35103;47.952;-1.502;2022-10-16T13:58:12;664.72;;;610.95;;
49252;SDS011;35103;47.952;-1.502;2022-10-16T14:00:38;841.97;;;752.08;;
49252;SDS011;35103;47.952;-1.502;2022-10-16T14:03:05;723.28;;;660.97;;
49252;SDS011;35103;47.952;-1.502;2022-10-16T14:05:36;721.72;;;661.97;;
49252;SDS011;35103;47.952;-1.502;2022-10-16T14:08:12;702.78;;;647.25;;
49252;SDS011;35103;47.952;-1.502;2022-10-16T14:10:38;745.00;;;682.40;;
49252;SDS011;35103;47.952;-1.502;2022-10-16T14:13:07;709.55;;;652.00;;
49252;SDS011;35103;47.952;-1.502;2022-10-16T14:15:39;703.65;;;650.10;;
49252;SDS011;35103;47.952;-1.502;2022-10-16T14:18:04;875.55;;;793.50;;
49252;SDS011;35103;47.952;-1.502;2022-10-16T14:20:31;779.38;;;715.58;;
49252;SDS011;35103;47.952;-1.502;2022-10-16T14:23:21;767.90;;;707.00;;
49252;SDS011;35103;47.952;-1.502;2022-10-16T14:26:04;796.03;;;726.30;;
49252;SDS011;35103;47.952;-1.502;2022-10-16T14:28:33;691.05;;;637.42;;
49252;SDS011;35103;47.952;-1.502;2022-10-16T14:30:59;769.30;;;701.97;;
49252;SDS011;35103;47.952;-1.502;2022-10-16T14:38:36;726.20;;;668.65;;
49252;SDS011;35103;47.952;-1.502;2022-10-16T14:41:13;685.00;;;632.67;;
49252;SDS011;35103;47.952;-1.502;2022-10-16T14:43:40;655.72;;;605.03;;
49252;SDS011;35103;47.952;-1.502;2022-10-16T14:46:15;736.25;;;677.55;;
49252;SDS011;35103;47.952;-1.502;2022-10-16T14:48:45;736.58;;;676.45;;
49252;SDS011;35103;47.952;-1.502;2022-10-16T14:51:16;758.95;;;695.45;;
49252;SDS011;35103;47.952;-1.502;2022-10-16T14:53:43;741.03;;;681.75;;
49252;SDS011;35103;47.952;-1.502;2022-10-16T14:56:19;783.10;;;715.08;;
49252;SDS011;35103;47.952;-1.502;2022-10-16T14:58:47;773.53;;;710.42;;
49252;SDS011;35103;47.952;-1.502;2022-10-16T15:01:14;734.85;;;678.13;;
49252;SDS011;35103;47.952;-1.502;2022-10-16T15:03:40;745.53;;;687.22;;
49252;SDS011;35103;47.952;-1.502;2022-10-16T15:06:09;750.53;;;691.60;;
49252;SDS011;35103;47.952;-1.502;2022-10-16T15:08:36;864.88;;;787.30;;
49252;SDS011;35103;47.952;-1.502;2022-10-16T15:11:02;789.47;;;723.67;;
49252;SDS011;35103;47.952;-1.502;2022-10-16T15:13:27;781.20;;;715.33;;
49252;SDS011;35103;47.952;-1.502;2022-10-16T15:15:53;792.15;;;726.58;;
49252;SDS011;35103;47.952;-1.502;2022-10-16T15:18:19;798.90;;;732.15;;
49252;SDS011;35103;47.952;-1.502;2022-10-16T15:20:44;939.22;;;848.05;;
49252;SDS011;35103;47.952;-1.502;2022-10-16T15:23:14;893.42;;;808.70;;
49252;SDS011;35103;47.952;-1.502;2022-10-16T15:28:10;773.35;;;709.03;;
49252;SDS011;35103;47.952;-1.502;2022-10-16T15:30:37;848.15;;;766.67;;
49252;SDS011;35103;47.952;-1.502;2022-10-16T15:33:03;792.75;;;721.38;;
49252;SDS011;35103;47.952;-1.502;2022-10-16T15:35:30;859.17;;;776.85;;
49252;SDS011;35103;47.952;-1.502;2022-10-16T15:37:56;897.50;;;811.92;;
49252;SDS011;35103;47.952;-1.502;2022-10-16T15:40:22;827.08;;;752.33;;
49252;SDS011;35103;47.952;-1.502;2022-10-16T15:42:48;852.63;;;773.13;;
49252;SDS011;35103;47.952;-1.502;2022-10-16T15:45:15;861.63;;;781.10;;
49252;SDS011;35103;47.952;-1.502;2022-10-16T15:47:41;855.22;;;774.60;;
49252;SDS011;35103;47.952;-1.502;2022-10-16T15:50:08;833.20;;;754.95;;
49252;SDS011;35103;47.952;-1.502;2022-10-16T15:52:35;789.38;;;719.80;;
49252;SDS011;35103;47.952;-1.502;2022-10-16T15:55:00;770.20;;;700.38;;
49252;SDS011;35103;47.952;-1.502;2022-10-16T15:57:27;797.80;;;727.83;;
49252;SDS011;35103;47.952;-1.502;2022-10-16T15:59:53;759.33;;;693.45;;